sensor_id;sensor_type;location;lat;lon;timestamp;pressure;altitude;pressure_sealevel;temperature;humidity
54042;BME280;41156;51.508;5.406;2023-12-22T00:02:32;100215.13;;;5.69;100.00
54042;BME280;41156;51.508;5.406;2023-12-22T00:05:33;100199.44;;;5.66;100.00
54042;BME280;41156;51.508;5.406;2023-12-22T00:08:33;100189.94;;;5.63;100.00
54042;BME280;41156;51.508;5.406;2023-12-22T00:11:33;100198.38;;;5.60;100.00
54042;BME280;41156;51.508;5.406;2023-12-22T00:14:33;100196.13;;;5.64;100.00
54042;BME280;41156;51.508;5.406;2023-12-22T00:17:34;100195.72;;;5.67;100.00
54042;BME280;41156;51.508;5.406;2023-12-22T00:20:34;100208.09;;;5.68;100.00
54042;BME280;41156;51.508;5.406;2023-12-22T00:23:35;100217.38;;;5.65;100.00
54042;BME280;41156;51.508;5.406;2023-12-22T00:26:36;100229.53;;;5.68;100.00
54042;BME280;41156;51.508;5.406;2023-12-22T00:29:36;100219.66;;;5.68;100.00
54042;BME280;41156;51.508;5.406;2023-12-22T00:32:37;100225.84;;;5.69;100.00
54042;BME280;41156;51.508;5.406;2023-12-22T00:35:37;100228.34;;;5.70;100.00
54042;BME280;41156;51.508;5.406;2023-12-22T00:38:38;100224.88;;;5.77;100.00
54042;BME280;41156;51.508;5.406;2023-12-22T00:41:38;100231.47;;;5.81;100.00
54042;BME280;41156;51.508;5.406;2023-12-22T00:44:38;100233.75;;;5.84;100.00
54042;BME280;41156;51.508;5.406;2023-12-22T00:47:40;100238.72;;;5.87;100.00
54042;BME280;41156;51.508;5.406;2023-12-22T00:50:40;100245.34;;;5.91;100.00
54042;BME280;41156;51.508;5.406;2023-12-22T00:53:40;100244.91;;;5.87;100.00
54042;BME280;41156;51.508;5.406;2023-12-22T00:56:40;100242.00;;;5.82;100.00
54042;BME280;41156;51.508;5.406;2023-12-22T00:59:41;100237.88;;;5.80;100.00
54042;BME280;41156;51.508;5.406;2023-12-22T01:02:47;100241.16;;;5.75;100.00
54042;BME280;41156;51.508;5.406;2023-12-22T01:05:47;100240.31;;;5.74;100.00
54042;BME280;41156;51.508;5.406;2023-12-22T01:08:48;100241.53;;;5.72;100.00
54042;BME280;41156;51.508;5.406;2023-12-22T01:11:50;100240.75;;;5.78;100.00
54042;BME280;41156;51.508;5.406;2023-12-22T01:14:50;100234.38;;;5.86;100.00
54042;BME280;41156;51.508;5.406;2023-12-22T01:17:51;100237.75;;;5.95;100.00
54042;BME280;41156;51.508;5.406;2023-12-22T01:20:52;100238.84;;;6.07;100.00
54042;BME280;41156;51.508;5.406;2023-12-22T01:23:53;100238.69;;;6.15;100.00
54042;BME280;41156;51.508;5.406;2023-12-22T01:26:53;100253.16;;;6.27;100.00
54042;BME280;41156;51.508;5.406;2023-12-22T01:29:53;100251.53;;;6.33;100.00
54042;BME280;41156;51.508;5.406;2023-12-22T01:32:53;100263.31;;;6.39;100.00
54042;BME280;41156;51.508;5.406;2023-12-22T01:35:54;100268.28;;;6.42;100.00
54042;BME280;41156;51.508;5.406;2023-12-22T01:38:54;100268.69;;;6.39;100.00
54042;BME280;41156;51.508;5.406;2023-12-22T01:41:54;100272.38;;;6.38;100.00
54042;BME280;41156;51.508;5.406;2023-12-22T01:44:55;100269.09;;;6.42;100.00
54042;BME280;41156;51.508;5.406;2023-12-22T01:47:55;100266.22;;;6.44;100.00
54042;BME280;41156;51.508;5.406;2023-12-22T01:50:56;100266.84;;;6.46;100.00
54042;BME280;41156;51.508;5.406;2023-12-22T01:53:59;100269.94;;;6.43;100.00
54042;BME280;41156;51.508;5.406;2023-12-22T01:57:01;100273.66;;;6.42;100.00
54042;BME280;41156;51.508;5.406;2023-12-22T02:00:02;100284.38;;;6.42;100.00
54042;BME280;41156;51.508;5.406;2023-12-22T02:03:03;100297.59;;;6.43;100.00
54042;BME280;41156;51.508;5.406;2023-12-22T02:06:05;100294.09;;;6.43;100.00
54042;BME280;41156;51.508;5.406;2023-12-22T02:09:05;100301.13;;;6.51;100.00
54042;BME280;41156;51.508;5.406;2023-12-22T02:12:06;100292.25;;;6.50;100.00
54042;BME280;41156;51.508;5.406;2023-12-22T02:15:06;100291.03;;;6.59;100.00
54042;BME280;41156;51.508;5.406;2023-12-22T02:18:10;100268.53;;;6.60;100.00
54042;BME280;41156;51.508;5.406;2023-12-22T02:21:12;100280.28;;;6.59;100.00
54042;BME280;41156;51.508;5.406;2023-12-22T02:24:12;100273.28;;;6.52;100.00
54042;BME280;41156;51.508;5.406;2023-12-22T02:33:46;100293.97;;;6.64;100.00
54042;BME280;41156;51.508;5.406;2023-12-22T02:36:48;100290.84;;;6.67;100.00
54042;BME280;41156;51.508;5.406;2023-12-22T02:39:51;100322.06;;;6.69;100.00
54042;BME280;41156;51.508;5.406;2023-12-22T02:42:53;100331.94;;;6.55;100.00
54042;BME280;41156;51.508;5.406;2023-12-22T02:45:53;100313.22;;;6.26;100.00
54042;BME280;41156;51.508;5.406;2023-12-22T02:48:53;100320.34;;;6.06;100.00
54042;BME280;41156;51.508;5.406;2023-12-22T02:51:54;100305.56;;;5.88;100.00
54042;BME280;41156;51.508;5.406;2023-12-22T02:54:54;100304.28;;;5.84;100.00
54042;BME280;41156;51.508;5.406;2023-12-22T02:57:54;100290.03;;;5.77;100.00
54042;BME280;41156;51.508;5.406;2023-12-22T03:00:54;100286.50;;;5.70;100.00
54042;BME280;41156;51.508;5.406;2023-12-22T03:03:55;100275.09;;;5.68;100.00
54042;BME280;41156;51.508;5.406;2023-12-22T03:06:55;100283.75;;;5.63;100.00
54042;BME280;41156;51.508;5.406;2023-12-22T03:09:55;100270.56;;;5.62;100.00
54042;BME280;41156;51.508;5.406;2023-12-22T03:12:55;100272.84;;;5.65;100.00
54042;BME280;41156;51.508;5.406;2023-12-22T03:15:56;100261.50;;;5.69;100.00
54042;BME280;41156;51.508;5.406;2023-12-22T03:18:56;100255.13;;;5.70;100.00
54042;BME280;41156;51.508;5.406;2023-12-22T03:21:57;100263.59;;;5.74;100.00
54042;BME280;41156;51.508;5.406;2023-12-22T03:24:57;100257.84;;;5.77;100.00
54042;BME280;41156;51.508;5.406;2023-12-22T03:27:57;100258.47;;;5.79;100.00
54042;BME280;41156;51.508;5.406;2023-12-22T03:30:57;100259.56;;;5.85;100.00
54042;BME280;41156;51.508;5.406;2023-12-22T03:33:58;100263.53;;;5.96;100.00
54042;BME280;41156;51.508;5.406;2023-12-22T03:36:58;100253.25;;;5.99;100.00
54042;BME280;41156;51.508;5.406;2023-12-22T03:39:59;100265.44;;;6.02;100.00
54042;BME280;41156;51.508;5.406;2023-12-22T03:42:59;100250.78;;;6.04;100.00
54042;BME280;41156;51.508;5.406;2023-12-22T03:45:59;100261.75;;;6.09;100.00
54042;BME280;41156;51.508;5.406;2023-12-22T03:49:00;100266.94;;;6.18;100.00
54042;BME280;41156;51.508;5.406;2023-12-22T03:52:00;100266.19;;;6.30;100.00
54042;BME280;41156;51.508;5.406;2023-12-22T03:55:00;100279.41;;;6.39;100.00
54042;BME280;41156;51.508;5.406;2023-12-22T03:58:00;100261.25;;;6.41;100.00
54042;BME280;41156;51.508;5.406;2023-12-22T04:01:01;100285.22;;;6.49;100.00
54042;BME280;41156;51.508;5.406;2023-12-22T04:04:01;100276.16;;;6.50;100.00
54042;BME280;41156;51.508;5.406;2023-12-22T04:07:01;100268.72;;;6.52;100.00
54042;BME280;41156;51.508;5.406;2023-12-22T04:10:01;100289.19;;;6.60;100.00
54042;BME280;41156;51.508;5.406;2023-12-22T04:13:02;100282.41;;;6.71;100.00
54042;BME280;41156;51.508;5.406;2023-12-22T04:16:02;100277.44;;;6.74;100.00
54042;BME280;41156;51.508;5.406;2023-12-22T04:19:05;100290.47;;;6.77;100.00
54042;BME280;41156;51.508;5.406;2023-12-22T04:22:05;100289.06;;;6.88;100.00
54042;BME280;41156;51.508;5.406;2023-12-22T04:25:06;100297.13;;;6.95;100.00
54042;BME280;41156;51.508;5.406;2023-12-22T04:28:07;100310.34;;;6.96;100.00
54042;BME280;41156;51.508;5.406;2023-12-22T04:31:07;100309.31;;;7.04;100.00
54042;BME280;41156;51.508;5.406;2023-12-22T04:34:08;100309.50;;;7.02;100.00
54042;BME280;41156;51.508;5.406;2023-12-22T04:37:09;100326.69;;;7.08;100.00
54042;BME280;41156;51.508;5.406;2023-12-22T04:40:10;100317.38;;;7.11;100.00
54042;BME280;41156;51.508;5.406;2023-12-22T04:43:10;100320.94;;;7.18;100.00
54042;BME280;41156;51.508;5.406;2023-12-22T04:46:10;100315.34;;;7.19;100.00
54042;BME280;41156;51.508;5.406;2023-12-22T04:49:10;100321.13;;;7.16;100.00
54042;BME280;41156;51.508;5.406;2023-12-22T04:52:11;100313.88;;;7.17;100.00
54042;BME280;41156;51.508;5.406;2023-12-22T04:55:12;100318.84;;;7.13;100.00
54042;BME280;41156;51.508;5.406;2023-12-22T04:58:12;100305.81;;;7.10;100.00
54042;BME280;41156;51.508;5.406;2023-12-22T05:01:12;100314.50;;;7.12;100.00
54042;BME280;41156;51.508;5.406;2023-12-22T05:04:13;100320.72;;;7.13;100.00
54042;BME280;41156;51.508;5.406;2023-12-22T05:07:13;100327.31;;;7.17;100.00
54042;BME280;41156;51.508;5.406;2023-12-22T05:10:13;100340.16;;;7.21;100.00
54042;BME280;41156;51.508;5.406;2023-12-22T05:13:14;100342.63;;;7.30;100.00
54042;BME280;41156;51.508;5.406;2023-12-22T05:16:14;100338.91;;;7.31;100.00
54042;BME280;41156;51.508;5.406;2023-12-22T05:19:14;100325.06;;;7.27;100.00
54042;BME280;41156;51.508;5.406;2023-12-22T05:22:15;100320.09;;;7.24;100.00
54042;BME280;41156;51.508;5.406;2023-12-22T05:25:15;100346.75;;;7.19;100.00
54042;BME280;41156;51.508;5.406;2023-12-22T05:28:15;100333.91;;;7.14;100.00
54042;BME280;41156;51.508;5.406;2023-12-22T05:31:16;100334.56;;;7.16;100.00
54042;BME280;41156;51.508;5.406;2023-12-22T05:34:16;100328.56;;;7.21;100.00
54042;BME280;41156;51.508;5.406;2023-12-22T05:37:17;100332.50;;;7.32;100.00
54042;BME280;41156;51.508;5.406;2023-12-22T05:40:17;100319.06;;;7.32;100.00
54042;BME280;41156;51.508;5.406;2023-12-22T05:43:17;100303.75;;;7.32;100.00
54042;BME280;41156;51.508;5.406;2023-12-22T05:46:18;100304.59;;;7.33;100.00
54042;BME280;41156;51.508;5.406;2023-12-22T05:49:18;100304.81;;;7.31;100.00
54042;BME280;41156;51.508;5.406;2023-12-22T05:52:18;100320.09;;;7.31;100.00
54042;BME280;41156;51.508;5.406;2023-12-22T05:55:18;100323.81;;;7.30;100.00
54042;BME280;41156;51.508;5.406;2023-12-22T05:58:19;100335.41;;;7.30;100.00
54042;BME280;41156;51.508;5.406;2023-12-22T06:01:19;100315.56;;;7.31;100.00
54042;BME280;41156;51.508;5.406;2023-12-22T06:04:19;100315.75;;;7.30;100.00
54042;BME280;41156;51.508;5.406;2023-12-22T06:07:20;100306.84;;;7.29;100.00
54042;BME280;41156;51.508;5.406;2023-12-22T06:10:20;100307.28;;;7.26;100.00
54042;BME280;41156;51.508;5.406;2023-12-22T06:13:20;100310.78;;;7.27;100.00
54042;BME280;41156;51.508;5.406;2023-12-22T06:16:20;100307.06;;;7.28;100.00
54042;BME280;41156;51.508;5.406;2023-12-22T06:19:21;100297.34;;;7.27;100.00
54042;BME280;41156;51.508;5.406;2023-12-22T06:22:22;100298.38;;;7.32;100.00
54042;BME280;41156;51.508;5.406;2023-12-22T06:25:23;100296.09;;;7.43;100.00
54042;BME280;41156;51.508;5.406;2023-12-22T06:28:23;100297.75;;;7.50;100.00
54042;BME280;41156;51.508;5.406;2023-12-22T06:31:23;100300.25;;;7.52;100.00
54042;BME280;41156;51.508;5.406;2023-12-22T06:34:24;100297.53;;;7.58;100.00
54042;BME280;41156;51.508;5.406;2023-12-22T06:37:25;100307.91;;;7.62;100.00
54042;BME280;41156;51.508;5.406;2023-12-22T06:40:26;100322.16;;;7.69;100.00
54042;BME280;41156;51.508;5.406;2023-12-22T06:43:26;100319.44;;;7.75;100.00
54042;BME280;41156;51.508;5.406;2023-12-22T06:46:27;100327.09;;;7.78;100.00
54042;BME280;41156;51.508;5.406;2023-12-22T06:49:27;100316.34;;;7.78;100.00
54042;BME280;41156;51.508;5.406;2023-12-22T06:52:28;100322.94;;;7.83;100.00
54042;BME280;41156;51.508;5.406;2023-12-22T06:55:28;100314.47;;;7.86;100.00
54042;BME280;41156;51.508;5.406;2023-12-22T06:58:29;100311.16;;;7.84;100.00
54042;BME280;41156;51.508;5.406;2023-12-22T07:01:34;100316.53;;;7.84;100.00
54042;BME280;41156;51.508;5.406;2023-12-22T07:04:34;100327.50;;;7.82;100.00
54042;BME280;41156;51.508;5.406;2023-12-22T07:07:37;100315.94;;;7.82;100.00
54042;BME280;41156;51.508;5.406;2023-12-22T07:10:38;100313.44;;;7.87;100.00
54042;BME280;41156;51.508;5.406;2023-12-22T07:13:38;100319.00;;;7.92;100.00
54042;BME280;41156;51.508;5.406;2023-12-22T07:16:39;100323.16;;;7.94;100.00
54042;BME280;41156;51.508;5.406;2023-12-22T07:19:39;100307.63;;;7.96;100.00
54042;BME280;41156;51.508;5.406;2023-12-22T07:22:39;100312.38;;;8.01;100.00
54042;BME280;41156;51.508;5.406;2023-12-22T07:25:40;100318.38;;;8.03;100.00
54042;BME280;41156;51.508;5.406;2023-12-22T07:28:40;100307.00;;;8.01;100.00
54042;BME280;41156;51.508;5.406;2023-12-22T07:31:40;100298.72;;;8.03;100.00
54042;BME280;41156;51.508;5.406;2023-12-22T07:34:40;100305.53;;;8.05;100.00
54042;BME280;41156;51.508;5.406;2023-12-22T07:37:41;100307.59;;;8.10;100.00
54042;BME280;41156;51.508;5.406;2023-12-22T07:40:41;100308.81;;;8.14;100.00
54042;BME280;41156;51.508;5.406;2023-12-22T07:43:41;100308.81;;;8.14;100.00
54042;BME280;41156;51.508;5.406;2023-12-22T07:46:42;100305.91;;;8.15;100.00
54042;BME280;41156;51.508;5.406;2023-12-22T07:49:42;100303.81;;;8.18;100.00
54042;BME280;41156;51.508;5.406;2023-12-22T07:52:42;100304.47;;;8.20;100.00
54042;BME280;41156;51.508;5.406;2023-12-22T07:55:44;100302.59;;;8.20;100.00
54042;BME280;41156;51.508;5.406;2023-12-22T07:58:44;100304.25;;;8.21;100.00
54042;BME280;41156;51.508;5.406;2023-12-22T08:01:44;100302.16;;;8.23;100.00
54042;BME280;41156;51.508;5.406;2023-12-22T08:04:44;100304.66;;;8.25;100.00
54042;BME280;41156;51.508;5.406;2023-12-22T08:07:45;100307.13;;;8.26;100.00
54042;BME280;41156;51.508;5.406;2023-12-22T08:10:45;100307.94;;;8.27;100.00
54042;BME280;41156;51.508;5.406;2023-12-22T08:13:46;100314.53;;;8.31;100.00
54042;BME280;41156;51.508;5.406;2023-12-22T08:16:47;100319.50;;;8.34;100.00
54042;BME280;41156;51.508;5.406;2023-12-22T08:19:47;100316.59;;;8.36;100.00
54042;BME280;41156;51.508;5.406;2023-12-22T08:22:49;100304.59;;;8.38;100.00
54042;BME280;41156;51.508;5.406;2023-12-22T08:25:49;100294.84;;;8.37;100.00
54042;BME280;41156;51.508;5.406;2023-12-22T08:28:50;100308.69;;;8.41;100.00
54042;BME280;41156;51.508;5.406;2023-12-22T08:31:50;100320.31;;;8.41;100.00
54042;BME280;41156;51.508;5.406;2023-12-22T08:34:50;100298.38;;;8.44;100.00
54042;BME280;41156;51.508;5.406;2023-12-22T08:37:50;100317.00;;;8.46;100.00
54042;BME280;41156;51.508;5.406;2023-12-22T08:40:51;100307.69;;;8.48;100.00
54042;BME280;41156;51.508;5.406;2023-12-22T08:43:51;100293.78;;;8.51;100.00
54042;BME280;41156;51.508;5.406;2023-12-22T08:46:51;100301.66;;;8.53;100.00
54042;BME280;41156;51.508;5.406;2023-12-22T08:49:52;100292.09;;;8.57;100.00
54042;BME280;41156;51.508;5.406;2023-12-22T08:52:52;100304.31;;;8.60;100.00
54042;BME280;41156;51.508;5.406;2023-12-22T08:55:52;100298.75;;;8.55;100.00
54042;BME280;41156;51.508;5.406;2023-12-22T08:58:53;100303.97;;;8.49;100.00
54042;BME280;41156;51.508;5.406;2023-12-22T09:01:55;100289.66;;;8.42;100.00
54042;BME280;41156;51.508;5.406;2023-12-22T09:04:55;100290.06;;;8.39;100.00
54042;BME280;41156;51.508;5.406;2023-12-22T09:07:55;100300.63;;;8.41;100.00
54042;BME280;41156;51.508;5.406;2023-12-22T09:10:55;100283.25;;;8.43;100.00
54042;BME280;41156;51.508;5.406;2023-12-22T09:13:56;100279.31;;;8.46;100.00
54042;BME280;41156;51.508;5.406;2023-12-22T09:16:56;100284.03;;;8.50;100.00
54042;BME280;41156;51.508;5.406;2023-12-22T09:19:56;100290.47;;;8.56;100.00
54042;BME280;41156;51.508;5.406;2023-12-22T09:22:57;100291.66;;;8.60;100.00
54042;BME280;41156;51.508;5.406;2023-12-22T09:25:57;100297.44;;;8.64;100.00
54042;BME280;41156;51.508;5.406;2023-12-22T09:28:58;100297.63;;;8.69;100.00
54042;BME280;41156;51.508;5.406;2023-12-22T09:31:58;100289.94;;;8.73;100.00
54042;BME280;41156;51.508;5.406;2023-12-22T09:34:59;100277.25;;;8.80;100.00
54042;BME280;41156;51.508;5.406;2023-12-22T09:38:01;100279.69;;;8.88;100.00
54042;BME280;41156;51.508;5.406;2023-12-22T09:41:01;100276.38;;;8.93;100.00
54042;BME280;41156;51.508;5.406;2023-12-22T09:44:03;100276.97;;;8.95;100.00
54042;BME280;41156;51.508;5.406;2023-12-22T09:47:05;100277.50;;;9.03;100.00
54042;BME280;41156;51.508;5.406;2023-12-22T09:50:07;100266.69;;;9.10;100.00
54042;BME280;41156;51.508;5.406;2023-12-22T09:53:09;100269.31;;;9.17;100.00
54042;BME280;41156;51.508;5.406;2023-12-22T09:56:09;100273.00;;;9.22;100.00
54042;BME280;41156;51.508;5.406;2023-12-22T09:59:13;100265.97;;;9.21;100.00
54042;BME280;41156;51.508;5.406;2023-12-22T10:02:13;100267.19;;;9.25;100.00
54042;BME280;41156;51.508;5.406;2023-12-22T10:05:14;100252.81;;;9.32;100.00
54042;BME280;41156;51.508;5.406;2023-12-22T10:08:14;100253.19;;;9.35;100.00
54042;BME280;41156;51.508;5.406;2023-12-22T10:11:15;100256.44;;;9.44;100.00
54042;BME280;41156;51.508;5.406;2023-12-22T10:14:17;100256.38;;;9.51;100.00
54042;BME280;41156;51.508;5.406;2023-12-22T10:17:22;100259.41;;;9.61;100.00
54042;BME280;41156;51.508;5.406;2023-12-22T10:20:23;100268.47;;;9.67;100.00
54042;BME280;41156;51.508;5.406;2023-12-22T10:23:23;100262.63;;;9.70;100.00
54042;BME280;41156;51.508;5.406;2023-12-22T10:26:24;100270.50;;;9.71;100.00
54042;BME280;41156;51.508;5.406;2023-12-22T10:29:24;100276.13;;;9.70;100.00
54042;BME280;41156;51.508;5.406;2023-12-22T10:32:25;100270.50;;;9.71;100.00
54042;BME280;41156;51.508;5.406;2023-12-22T10:35:25;100284.59;;;9.73;100.00
54042;BME280;41156;51.508;5.406;2023-12-22T10:38:33;100273.34;;;9.76;100.00
54042;BME280;41156;51.508;5.406;2023-12-22T10:41:35;100270.44;;;9.78;100.00
54042;BME280;41156;51.508;5.406;2023-12-22T10:44:39;100270.44;;;9.78;100.00
54042;BME280;41156;51.508;5.406;2023-12-22T10:47:40;100272.91;;;9.79;100.00
54042;BME280;41156;51.508;5.406;2023-12-22T10:50:40;100281.31;;;9.90;100.00
54042;BME280;41156;51.508;5.406;2023-12-22T10:53:42;100275.69;;;9.91;100.00
54042;BME280;41156;51.508;5.406;2023-12-22T10:56:42;100288.13;;;9.92;100.00
54042;BME280;41156;51.508;5.406;2023-12-22T10:59:47;100276.28;;;9.93;100.00
54042;BME280;41156;51.508;5.406;2023-12-22T11:02:47;100269.00;;;9.94;100.00
54042;BME280;41156;51.508;5.406;2023-12-22T11:05:51;100276.88;;;9.95;100.00
54042;BME280;41156;51.508;5.406;2023-12-22T11:08:53;100277.66;;;10.03;100.00
54042;BME280;41156;51.508;5.406;2023-12-22T11:11:56;100253.56;;;10.01;100.00
54042;BME280;41156;51.508;5.406;2023-12-22T11:14:57;100280.94;;;10.05;100.00
54042;BME280;41156;51.508;5.406;2023-12-22T11:17:58;100269.69;;;10.08;100.00
54042;BME280;41156;51.508;5.406;2023-12-22T11:21:01;100269.84;;;10.13;100.00
54042;BME280;41156;51.508;5.406;2023-12-22T11:24:07;100255.06;;;10.15;100.00
54042;BME280;41156;51.508;5.406;2023-12-22T11:27:08;100256.34;;;10.13;100.00
54042;BME280;41156;51.508;5.406;2023-12-22T11:30:11;100257.06;;;10.20;100.00
54042;BME280;41156;51.508;5.406;2023-12-22T11:33:12;100267.44;;;10.23;100.00
54042;BME280;41156;51.508;5.406;2023-12-22T11:36:14;100263.53;;;10.19;100.00
54042;BME280;41156;51.508;5.406;2023-12-22T11:39:15;100227.97;;;10.22;100.00
54042;BME280;41156;51.508;5.406;2023-12-22T11:42:18;100246.88;;;10.22;100.00
54042;BME280;41156;51.508;5.406;2023-12-22T11:45:19;100241.59;;;10.27;100.00
54042;BME280;41156;51.508;5.406;2023-12-22T11:48:23;100243.44;;;10.33;100.00
54042;BME280;41156;51.508;5.406;2023-12-22T11:51:23;100226.63;;;10.31;100.00
54042;BME280;41156;51.508;5.406;2023-12-22T11:54:50;100228.66;;;10.36;100.00
54042;BME280;41156;51.508;5.406;2023-12-22T11:57:51;100235.69;;;10.37;100.00
54042;BME280;41156;51.508;5.406;2023-12-22T12:00:52;100222.88;;;10.32;100.00
54042;BME280;41156;51.508;5.406;2023-12-22T12:03:57;100238.09;;;10.27;100.00
54042;BME280;41156;51.508;5.406;2023-12-22T12:07:37;100225.97;;;10.17;100.00
54042;BME280;41156;51.508;5.406;2023-12-22T12:13:48;100226.88;;;10.11;100.00
54042;BME280;41156;51.508;5.406;2023-12-22T12:16:49;100235.19;;;10.10;100.00
54042;BME280;41156;51.508;5.406;2023-12-22T12:19:51;100251.97;;;10.12;100.00
54042;BME280;41156;51.508;5.406;2023-12-22T12:22:51;100232.50;;;10.10;100.00
54042;BME280;41156;51.508;5.406;2023-12-22T12:25:53;100211.25;;;10.13;100.00
54042;BME280;41156;51.508;5.406;2023-12-22T12:28:53;100220.66;;;10.11;100.00
54042;BME280;41156;51.508;5.406;2023-12-22T12:32:03;100221.47;;;10.11;100.00
54042;BME280;41156;51.508;5.406;2023-12-22T12:35:04;100218.41;;;10.08;100.00
54042;BME280;41156;51.508;5.406;2023-12-22T12:38:05;100222.66;;;10.15;100.00
54042;BME280;41156;51.508;5.406;2023-12-22T12:41:06;100202.63;;;10.23;100.00
54042;BME280;41156;51.508;5.406;2023-12-22T12:44:06;100221.38;;;10.18;100.00
54042;BME280;41156;51.508;5.406;2023-12-22T12:47:12;100223.88;;;10.19;100.00
54042;BME280;41156;51.508;5.406;2023-12-22T12:50:13;100221.16;;;10.19;100.00
54042;BME280;41156;51.508;5.406;2023-12-22T12:53:13;100217.63;;;10.19;100.00
54042;BME280;41156;51.508;5.406;2023-12-22T12:56:15;100210.81;;;10.16;100.00
54042;BME280;41156;51.508;5.406;2023-12-22T12:59:16;100223.03;;;10.19;100.00
54042;BME280;41156;51.508;5.406;2023-12-22T13:02:18;100222.66;;;10.15;100.00
54042;BME280;41156;51.508;5.406;2023-12-22T13:05:24;100221.38;;;10.18;100.00
54042;BME280;41156;51.508;5.406;2023-12-22T13:08:24;100208.47;;;10.20;100.00
54042;BME280;41156;51.508;5.406;2023-12-22T13:11:28;100224.31;;;10.16;100.00
54042;BME280;41156;51.508;5.406;2023-12-22T13:14:31;100237.81;;;10.16;100.00
54042;BME280;41156;51.508;5.406;2023-12-22T13:17:31;100225.00;;;10.12;100.00
54042;BME280;41156;51.508;5.406;2023-12-22T13:20:32;100233.09;;;10.12;100.00
54042;BME280;41156;51.508;5.406;2023-12-22T13:23:32;100232.63;;;10.15;100.00
54042;BME280;41156;51.508;5.406;2023-12-22T13:26:33;100236.38;;;10.14;100.00
54042;BME280;41156;51.508;5.406;2023-12-22T13:29:44;100233.69;;;10.14;100.00
54042;BME280;41156;51.508;5.406;2023-12-22T13:32:45;100233.22;;;10.17;100.00
54042;BME280;41156;51.508;5.406;2023-12-22T13:35:46;100235.94;;;10.17;100.00
54042;BME280;41156;51.508;5.406;2023-12-22T13:38:48;100235.94;;;10.17;100.00
54042;BME280;41156;51.508;5.406;2023-12-22T13:41:48;100244.16;;;10.22;100.00
54042;BME280;41156;51.508;5.406;2023-12-22T13:44:48;100262.84;;;10.24;100.00
54042;BME280;41156;51.508;5.406;2023-12-22T13:47:49;100259.34;;;10.23;100.00
54042;BME280;41156;51.508;5.406;2023-12-22T13:50:57;100242.91;;;10.25;100.00
54042;BME280;41156;51.508;5.406;2023-12-22T13:53:57;100247.00;;;10.27;100.00
54042;BME280;41156;51.508;5.406;2023-12-22T13:57:00;100254.28;;;10.27;100.00
54042;BME280;41156;51.508;5.406;2023-12-22T14:00:00;100257.59;;;10.29;100.00
54042;BME280;41156;51.508;5.406;2023-12-22T14:03:01;100243.28;;;10.28;100.00
54042;BME280;41156;51.508;5.406;2023-12-22T14:06:02;100238.91;;;10.27;100.00
54042;BME280;41156;51.508;5.406;2023-12-22T14:09:03;100255.13;;;10.27;100.00
54042;BME280;41156;51.508;5.406;2023-12-22T14:12:03;100265.53;;;10.24;100.00
54042;BME280;41156;51.508;5.406;2023-12-22T14:15:08;100264.72;;;10.23;100.00
54042;BME280;41156;51.508;5.406;2023-12-22T14:18:09;100269.09;;;10.24;100.00
54042;BME280;41156;51.508;5.406;2023-12-22T14:21:09;100277.41;;;10.23;100.00
54042;BME280;41156;51.508;5.406;2023-12-22T14:24:10;100279.91;;;10.24;100.00
54042;BME280;41156;51.508;5.406;2023-12-22T14:27:10;100260.59;;;10.21;100.00
54042;BME280;41156;51.508;5.406;2023-12-22T14:30:11;100288.44;;;10.21;100.00
54042;BME280;41156;51.508;5.406;2023-12-22T14:33:11;100289.47;;;10.20;100.00
54042;BME280;41156;51.508;5.406;2023-12-22T14:36:11;100285.75;;;10.21;100.00
54042;BME280;41156;51.508;5.406;2023-12-22T14:39:12;100286.78;;;10.20;100.00
54042;BME280;41156;51.508;5.406;2023-12-22T14:42:13;100294.88;;;10.20;100.00
54042;BME280;41156;51.508;5.406;2023-12-22T14:45:14;100302.75;;;10.22;100.00
54042;BME280;41156;51.508;5.406;2023-12-22T14:48:14;100302.38;;;10.18;100.00
54042;BME280;41156;51.508;5.406;2023-12-22T14:51:14;100305.91;;;10.18;100.00
54042;BME280;41156;51.508;5.406;2023-12-22T14:54:14;100300.72;;;10.17;100.00
54042;BME280;41156;51.508;5.406;2023-12-22T14:57:15;100307.56;;;10.19;100.00
54042;BME280;41156;51.508;5.406;2023-12-22T15:00:15;100322.31;;;10.17;100.00
54042;BME280;41156;51.508;5.406;2023-12-22T15:03:16;100310.94;;;10.15;100.00
54042;BME280;41156;51.508;5.406;2023-12-22T15:06:17;100311.53;;;10.17;100.00
54042;BME280;41156;51.508;5.406;2023-12-22T15:09:17;100311.97;;;10.14;100.00
54042;BME280;41156;51.508;5.406;2023-12-22T15:12:17;100318.22;;;10.14;100.00
54042;BME280;41156;51.508;5.406;2023-12-22T15:15:18;100325.47;;;10.14;100.00
54042;BME280;41156;51.508;5.406;2023-12-22T15:18:18;100326.53;;;10.13;100.00
54042;BME280;41156;51.508;5.406;2023-12-22T15:21:22;100344.78;;;10.17;100.00
54042;BME280;41156;51.508;5.406;2023-12-22T15:24:23;100334.03;;;10.11;100.00
54042;BME280;41156;51.508;5.406;2023-12-22T15:27:23;100329.97;;;10.02;100.00
54042;BME280;41156;51.508;5.406;2023-12-22T15:30:24;100345.88;;;9.91;100.00
54042;BME280;41156;51.508;5.406;2023-12-22T15:33:25;100350.03;;;9.87;100.00
54042;BME280;41156;51.508;5.406;2023-12-22T15:36:26;100340.09;;;9.88;100.00
54042;BME280;41156;51.508;5.406;2023-12-22T15:39:28;100356.66;;;9.91;100.00
54042;BME280;41156;51.508;5.406;2023-12-22T15:42:29;100360.41;;;9.90;100.00
54042;BME280;41156;51.508;5.406;2023-12-22T15:45:30;100354.56;;;9.93;100.00
54042;BME280;41156;51.508;5.406;2023-12-22T15:48:35;100344.94;;;9.97;100.00
54042;BME280;41156;51.508;5.406;2023-12-22T15:51:35;100366.53;;;9.97;100.00
54042;BME280;41156;51.508;5.406;2023-12-22T15:54:38;100361.78;;;9.99;100.00